Time;durP1;ratioP1;P1;durP2;ratioP2;P2;SDS_P1;SDS_P2;PMS_P1;PMS_P2;Temp;Humidity;BMP_temperature;BMP_pressure;BME280_temperature;BME280_humidity;BME280_pressure;Samples;Min_cycle;Max_cycle;Signal;HPM_P1;HPM_P2
2022/10/04 00:00:35;;;;;;;7.10;3.22;;;12.70;99.90;;;;;;5049719;28;20125;-36
2022/10/04 00:03:26;;;;;;;7.35;3.17;;;12.70;99.90;;;;;;5038706;28;20040;-36
2022/10/04 00:05:56;;;;;;;9.15;2.90;;;12.70;99.90;;;;;;5052758;28;20048;-36
2022/10/04 00:08:25;;;;;;;6.05;2.20;;;12.70;99.90;;;;;;5048636;28;20049;-36
2022/10/04 00:11:12;;;;;;;7.35;3.17;;;12.70;99.90;;;;;;5051593;28;20493;-36
2022/10/04 00:13:40;;;;;;;6.60;2.75;;;12.70;99.90;;;;;;5049039;28;20040;-36
2022/10/04 00:16:06;;;;;;;7.10;2.75;;;12.70;99.90;;;;;;5049048;28;20408;-35
2022/10/04 00:18:43;;;;;;;7.13;3.00;;;12.70;99.90;;;;;;5051411;28;20567;-36
2022/10/04 00:21:09;;;;;;;6.80;2.85;;;12.80;99.90;;;;;;5051384;28;20037;-36
2022/10/04 00:23:34;;;;;;;7.63;2.63;;;12.70;99.90;;;;;;5055581;28;20036;-36
2022/10/04 00:26:04;;;;;;;8.75;3.30;;;12.70;99.90;;;;;;5050335;28;20420;-35
2022/10/04 00:28:36;;;;;;;6.45;2.85;;;12.70;99.90;;;;;;5051574;28;20102;-36
2022/10/04 00:31:17;;;;;;;11.05;2.95;;;12.70;99.90;;;;;;5053307;28;20047;-36
2022/10/04 00:33:47;;;;;;;7.35;2.90;;;12.70;99.90;;;;;;5051063;28;20037;-36
2022/10/04 00:36:24;;;;;;;8.43;3.50;;;12.70;99.90;;;;;;5049088;28;20044;-36
2022/10/04 00:39:05;;;;;;;8.80;2.55;;;12.70;99.90;;;;;;5051369;28;20072;-36
2022/10/04 00:41:37;;;;;;;9.95;2.90;;;12.70;99.90;;;;;;5051298;28;20063;-36
2022/10/04 00:44:08;;;;;;;7.57;2.47;;;12.70;99.90;;;;;;5050290;28;20501;-36
2022/10/04 00:46:35;;;;;;;10.02;3.00;;;12.60;99.90;;;;;;5052801;28;20140;-36
2022/10/04 00:49:06;;;;;;;5.68;2.38;;;12.70;99.90;;;;;;5046500;28;20067;-36
2022/10/04 00:51:37;;;;;;;7.40;2.75;;;12.60;99.90;;;;;;5048041;28;20052;-36
2022/10/04 00:54:19;;;;;;;5.95;2.70;;;12.60;99.90;;;;;;5048852;28;20044;-36
2022/10/04 00:56:54;;;;;;;6.70;3.08;;;12.60;99.90;;;;;;5056363;28;20120;-36
2022/10/04 00:59:49;;;;;;;8.77;3.20;;;12.60;99.90;;;;;;5053324;28;20045;-36
2022/10/04 01:02:20;;;;;;;8.35;3.30;;;12.50;99.90;;;;;;5053673;28;20504;-37
2022/10/04 01:05:12;;;;;;;7.15;2.88;;;12.60;99.90;;;;;;5041171;28;20429;-36
2022/10/04 01:07:57;;;;;;;8.40;2.80;;;12.50;99.90;;;;;;5041488;28;20126;-36
2022/10/04 01:10:35;;;;;;;9.13;3.22;;;12.50;99.90;;;;;;5045218;28;20029;-36
2022/10/04 01:13:20;;;;;;;5.18;2.42;;;12.50;99.90;;;;;;5045897;28;20037;-36
2022/10/04 01:15:59;;;;;;;7.25;2.63;;;12.50;99.90;;;;;;5047160;28;20034;-36
2022/10/04 01:18:25;;;;;;;7.85;2.67;;;12.50;99.90;;;;;;5048197;28;20073;-36
2022/10/04 01:21:03;;;;;;;7.43;2.97;;;12.50;99.90;;;;;;5045790;28;20079;-35
2022/10/04 01:23:42;;;;;;;8.75;3.30;;;12.50;99.90;;;;;;5046516;28;20045;-36
2022/10/04 01:26:28;;;;;;;8.27;3.17;;;12.50;99.90;;;;;;5045110;28;20829;-36
2022/10/04 01:28:54;;;;;;;4.25;2.22;;;12.50;99.90;;;;;;5049597;28;20678;-37
2022/10/04 01:31:21;;;;;;;6.80;3.30;;;12.40;99.90;;;;;;5047070;28;20410;-36
2022/10/04 01:33:47;;;;;;;5.30;2.83;;;12.40;99.90;;;;;;5052824;28;20048;-36
2022/10/04 01:36:13;;;;;;;5.28;2.20;;;12.40;99.90;;;;;;5050329;28;20041;-36
2022/10/04 01:38:38;;;;;;;8.32;3.00;;;12.40;99.90;;;;;;5049103;28;20394;-36
2022/10/04 01:41:06;;;;;;;7.53;3.30;;;12.40;99.90;;;;;;5046999;28;20490;-36
2022/10/04 01:43:37;;;;;;;9.40;3.35;;;12.40;99.90;;;;;;5047862;28;20037;-36
2022/10/04 01:46:25;;;;;;;7.38;3.10;;;12.40;99.90;;;;;;5046215;28;20040;-37
2022/10/04 01:48:53;;;;;;;6.63;3.10;;;12.40;99.90;;;;;;5046402;28;20041;-36
2022/10/04 01:51:32;;;;;;;10.13;3.40;;;12.40;99.90;;;;;;5050236;28;20048;-36
2022/10/04 01:54:17;;;;;;;10.00;3.85;;;12.30;99.90;;;;;;5050671;28;20041;-36
2022/10/04 01:57:01;;;;;;;5.85;2.72;;;12.30;99.90;;;;;;5050166;28;20067;-36
2022/10/04 01:59:33;;;;;;;6.28;2.55;;;12.30;99.90;;;;;;5042015;28;20502;-36
2022/10/04 02:02:08;;;;;;;;;;;12.30;99.90;;;;;;5053308;28;20558;-36
2022/10/04 02:04:38;;;;;;;4.90;2.50;;;12.20;99.90;;;;;;5046494;28;19924;-36
2022/10/04 02:07:12;;;;;;;6.72;2.65;;;12.20;99.90;;;;;;5054116;28;20053;-36
2022/10/04 02:09:42;;;;;;;7.50;3.40;;;12.20;99.90;;;;;;5049199;28;20077;-35
2022/10/04 02:12:13;;;;;;;6.00;2.92;;;12.10;99.90;;;;;;5047046;28;20044;-36
2022/10/04 02:14:47;;;;;;;6.80;3.33;;;12.10;99.90;;;;;;5055156;28;20049;-36
2022/10/04 02:17:16;;;;;;;9.10;3.88;;;12.00;99.90;;;;;;5050537;28;20040;-35
2022/10/04 02:19:43;;;;;;;8.25;3.72;;;12.00;99.90;;;;;;5052453;28;20099;-35
2022/10/04 02:22:10;;;;;;;7.72;3.67;;;11.90;99.90;;;;;;5049672;28;20125;-36
2022/10/04 02:24:40;;;;;;;6.60;3.40;;;11.90;99.90;;;;;;5052021;28;20063;-35
2022/10/04 02:27:05;;;;;;;8.48;3.38;;;11.90;99.90;;;;;;5051355;28;20418;-36
2022/10/04 02:29:31;;;;;;;8.82;4.10;;;11.90;99.90;;;;;;5051635;28;20072;-36
2022/10/04 02:34:43;;;;;;;9.52;3.75;;;11.90;99.90;;;;;;5052730;28;20144;-35
2022/10/04 02:37:09;;;;;;;6.50;3.85;;;11.80;99.90;;;;;;5049837;28;20091;-36
2022/10/04 02:40:06;;;;;;;10.85;3.33;;;11.80;99.90;;;;;;5052318;28;20375;-36
2022/10/04 02:43:09;;;;;;;6.43;3.33;;;11.80;99.90;;;;;;5050373;28;20068;-37
2022/10/04 02:45:39;;;;;;;;;;;11.70;99.90;;;;;;5044118;28;20198;-37
2022/10/04 02:48:35;;;;;;;7.20;3.53;;;11.70;99.90;;;;;;5052187;28;20425;-36
2022/10/04 02:51:24;;;;;;;9.77;3.88;;;11.60;99.90;;;;;;5046453;28;20074;-36
2022/10/04 02:54:08;;;;;;;7.10;3.10;;;11.60;99.90;;;;;;5042488;28;20131;-36
2022/10/04 02:56:35;;;;;;;7.97;3.45;;;11.60;99.90;;;;;;5048218;28;20128;-36
2022/10/04 02:59:05;;;;;;;6.32;3.40;;;11.50;99.90;;;;;;5043324;28;20498;-36
2022/10/04 03:01:48;;;;;;;6.15;3.38;;;11.50;99.90;;;;;;5050677;28;20553;-36
2022/10/04 03:04:15;;;;;;;6.60;3.50;;;11.40;99.90;;;;;;5051739;28;20581;-35
2022/10/04 03:06:44;;;;;;;7.10;2.97;;;11.40;99.90;;;;;;5052706;28;20041;-36
2022/10/04 03:09:11;;;;;;;10.18;3.20;;;11.40;99.90;;;;;;5048556;28;20037;-36
2022/10/04 03:11:39;;;;;;;8.32;3.70;;;11.40;99.90;;;;;;5052300;28;20044;-35
2022/10/04 03:14:19;;;;;;;9.68;4.30;;;11.40;99.90;;;;;;5051929;28;20161;-36
2022/10/04 03:16:48;;;;;;;10.75;4.03;;;11.40;99.90;;;;;;5033136;28;20053;-36
2022/10/04 03:19:16;;;;;;;9.73;4.07;;;11.40;99.90;;;;;;5048950;28;20413;-36
2022/10/04 03:21:44;;;;;;;10.50;4.72;;;11.30;99.90;;;;;;5052586;28;20498;-36
2022/10/04 03:24:17;;;;;;;9.10;4.47;;;11.30;99.90;;;;;;5054485;28;20047;-36
2022/10/04 03:26:46;;;;;;;8.23;3.40;;;11.20;99.90;;;;;;5052300;28;20095;-36
2022/10/04 03:29:15;;;;;;;8.23;3.75;;;11.20;99.90;;;;;;5053675;28;20041;-36
2022/10/04 03:31:46;;;;;;;9.43;3.90;;;11.20;99.90;;;;;;5050553;28;20040;-36
2022/10/04 03:34:25;;;;;;;11.48;4.18;;;11.20;99.90;;;;;;5049980;28;20049;-36
2022/10/04 03:36:55;;;;;;;7.90;3.75;;;11.20;99.90;;;;;;5049937;28;20053;-35
2022/10/04 03:39:33;;;;;;;9.27;3.90;;;11.20;99.90;;;;;;5045265;28;20132;-35
2022/10/04 03:42:04;;;;;;;9.07;3.47;;;11.10;99.90;;;;;;5045686;28;21223;-37
2022/10/04 03:44:31;;;;;;;9.20;4.10;;;11.20;99.90;;;;;;5048578;28;20187;-37
2022/10/04 03:46:57;;;;;;;10.35;4.30;;;11.10;99.90;;;;;;5051975;28;20120;-36
2022/10/04 03:49:33;;;;;;;8.60;4.00;;;11.10;99.90;;;;;;5044370;28;20090;-36
2022/10/04 03:52:00;;;;;;;8.32;4.32;;;11.10;99.90;;;;;;5047611;28;20044;-36
2022/10/04 03:54:26;;;;;;;12.93;3.83;;;11.00;99.90;;;;;;5049242;28;20048;-36
2022/10/04 03:56:54;;;;;;;9.75;3.53;;;11.00;99.90;;;;;;5041271;28;20045;-36
2022/10/04 03:59:21;;;;;;;7.63;4.10;;;11.00;99.90;;;;;;5041557;28;20376;-36
2022/10/04 04:01:58;;;;;;;10.73;3.88;;;11.00;99.90;;;;;;5049169;28;20041;-37
2022/10/04 04:04:46;;;;;;;11.35;4.85;;;11.00;99.90;;;;;;5048443;28;20065;-36
2022/10/04 04:07:19;;;;;;;10.20;4.10;;;11.00;99.90;;;;;;5046091;28;20056;-36
2022/10/04 04:10:19;;;;;;;9.25;4.50;;;11.00;99.90;;;;;;5050004;28;20044;-36
2022/10/04 04:12:48;;;;;;;9.93;3.80;;;10.90;99.90;;;;;;5039441;28;20163;-36
2022/10/04 04:15:15;;;;;;;7.32;3.28;;;10.90;99.90;;;;;;5051730;28;20111;-35
2022/10/04 04:17:45;;;;;;;12.18;5.05;;;10.90;99.90;;;;;;5050834;28;20037;-35
2022/10/04 04:20:35;;;;;;;10.07;3.85;;;10.90;99.90;;;;;;5028106;28;20048;-36
2022/10/04 04:23:16;;;;;;;8.85;4.82;;;10.80;99.90;;;;;;5040908;28;20091;-36
2022/10/04 04:25:45;;;;;;;7.57;4.40;;;10.80;99.90;;;;;;5040838;28;20124;-36
2022/10/04 04:28:38;;;;;;;9.35;4.32;;;10.80;99.90;;;;;;5047161;28;20498;-35
2022/10/04 04:31:17;;;;;;;10.20;4.85;;;10.70;99.90;;;;;;5043774;28;20068;-36
2022/10/04 04:34:02;;;;;;;9.18;4.15;;;10.70;99.90;;;;;;5055741;28;20045;-36
2022/10/04 04:36:31;;;;;;;8.60;4.22;;;10.70;99.90;;;;;;5059198;28;20163;-36
2022/10/04 04:39:33;;;;;;;14.65;5.97;;;10.70;99.90;;;;;;5052173;28;20044;-36
2022/10/04 04:42:30;;;;;;;10.45;4.75;;;10.70;99.90;;;;;;5047709;28;20056;-36
2022/10/04 04:45:00;;;;;;;9.88;4.72;;;10.70;99.90;;;;;;5048347;28;20076;-36
2022/10/04 04:47:57;;;;;;;12.30;6.20;;;10.60;99.90;;;;;;5049721;28;20064;-36
2022/10/04 04:50:29;;;;;;;8.50;4.95;;;10.60;99.90;;;;;;5030491;28;20045;-35
2022/10/04 04:53:19;;;;;;;10.65;4.97;;;10.60;99.90;;;;;;5052186;28;20052;-36
2022/10/04 04:55:52;;;;;;;11.02;5.25;;;10.60;99.90;;;;;;5047900;28;20047;-36
2022/10/04 04:58:24;;;;;;;13.38;5.60;;;10.60;99.90;;;;;;5047699;28;20407;-36
2022/10/04 05:01:13;;;;;;;10.05;4.30;;;10.60;99.90;;;;;;5046602;28;20063;-36
2022/10/04 05:03:38;;;;;;;9.82;4.90;;;10.60;99.90;;;;;;5052537;28;20053;-36
2022/10/04 05:06:20;;;;;;;13.93;5.53;;;10.60;99.90;;;;;;5050907;28;20043;-36
2022/10/04 05:08:49;;;;;;;13.30;6.18;;;10.60;99.90;;;;;;5044312;28;20076;-37
2022/10/04 05:11:17;;;;;;;10.65;4.82;;;10.60;99.90;;;;;;5049065;28;20111;-36
2022/10/04 05:13:59;;;;;;;9.40;5.38;;;10.60;99.90;;;;;;5045425;28;20103;-37
2022/10/04 05:16:51;;;;;;;10.40;6.25;;;10.60;99.90;;;;;;5045976;28;20132;-36
2022/10/04 05:19:36;;;;;;;13.43;6.10;;;10.60;99.90;;;;;;5026542;28;20071;-35
2022/10/04 05:22:09;;;;;;;10.73;6.55;;;10.60;99.90;;;;;;5046313;28;20044;-37
2022/10/04 05:24:41;;;;;;;11.95;5.28;;;10.60;99.90;;;;;;5031974;28;20048;-36
2022/10/04 05:27:31;;;;;;;11.20;5.53;;;10.60;99.90;;;;;;5049696;28;20056;-37
2022/10/04 05:30:14;;;;;;;11.85;5.57;;;10.50;99.90;;;;;;5043393;28;20792;-36
2022/10/04 05:32:49;;;;;;;8.80;4.82;;;10.50;99.90;;;;;;5055370;28;20508;-36
2022/10/04 05:35:20;;;;;;;11.68;6.03;;;10.60;99.90;;;;;;5044033;28;20060;-36
2022/10/04 05:38:08;;;;;;;12.02;6.22;;;10.60;99.90;;;;;;5045615;28;20083;-36
2022/10/04 05:40:44;;;;;;;11.57;6.68;;;10.60;99.90;;;;;;5038730;28;20047;-35
2022/10/04 05:43:36;;;;;;;13.82;6.55;;;10.60;99.90;;;;;;5040951;28;20037;-36
2022/10/04 05:46:13;;;;;;;10.38;6.70;;;10.60;99.90;;;;;;5046024;28;20686;-36
2022/10/04 05:48:42;;;;;;;11.80;6.25;;;10.60;99.90;;;;;;5048205;28;20115;-36
2022/10/04 05:51:32;;;;;;;10.70;6.53;;;10.60;99.90;;;;;;5044438;28;20052;-35
2022/10/04 05:54:02;;;;;;;14.98;7.68;;;10.60;99.90;;;;;;5028563;28;20055;-36
2022/10/04 05:56:47;;;;;;;10.60;6.07;;;10.60;99.90;;;;;;5048162;28;20078;-36
2022/10/04 05:59:41;;;;;;;10.23;6.47;;;10.60;99.90;;;;;;5046107;28;20486;-36
2022/10/04 06:02:44;;;;;;;9.55;5.78;;;10.60;99.90;;;;;;5047672;28;20049;-37
2022/10/04 06:05:19;;;;;;;11.45;6.53;;;10.60;99.90;;;;;;5033270;28;20490;-36
2022/10/04 06:07:59;;;;;;;12.77;7.05;;;10.60;99.90;;;;;;5044051;28;20086;-36
2022/10/04 06:10:56;;;;;;;12.10;5.97;;;10.60;99.90;;;;;;5042901;28;20053;-36
2022/10/04 06:13:30;;;;;;;10.00;5.63;;;10.50;99.90;;;;;;5045827;28;20119;-35
2022/10/04 06:16:04;;;;;;;11.25;6.95;;;10.50;99.90;;;;;;5047348;28;20029;-35
2022/10/04 06:18:40;;;;;;;12.98;6.10;;;10.50;99.90;;;;;;5053772;28;20115;-36
2022/10/04 06:21:18;;;;;;;10.02;6.32;;;10.50;99.90;;;;;;5047352;28;20567;-36
2022/10/04 06:23:54;;;;;;;14.75;6.05;;;10.50;99.90;;;;;;5046687;28;20056;-36
2022/10/04 06:26:47;;;;;;;13.40;5.90;;;10.60;99.90;;;;;;5049380;28;20036;-37
2022/10/04 06:29:22;;;;;;;13.50;6.43;;;10.50;99.90;;;;;;5026096;28;20529;-37
2022/10/04 06:32:01;;;;;;;14.13;7.25;;;10.60;99.90;;;;;;5047736;28;20045;-37
2022/10/04 06:34:35;;;;;;;14.88;7.55;;;10.60;99.90;;;;;;5047008;28;20059;-37
2022/10/04 06:37:36;;;;;;;13.27;6.80;;;10.60;99.90;;;;;;5038404;28;20135;-36
2022/10/04 06:40:25;;;;;;;12.98;7.20;;;10.60;99.90;;;;;;5032833;28;20064;-37
2022/10/04 06:43:25;;;;;;;14.70;7.70;;;10.60;99.90;;;;;;5045575;28;20513;-38
2022/10/04 06:46:10;;;;;;;11.07;6.78;;;10.60;99.90;;;;;;5042589;28;20528;-37
2022/10/04 06:48:57;;;;;;;12.30;6.95;;;10.60;99.90;;;;;;5047423;28;20128;-37
2022/10/04 06:51:36;;;;;;;11.98;7.30;;;10.60;99.90;;;;;;5030759;28;20048;-38
2022/10/04 06:54:30;;;;;;;9.48;6.13;;;10.70;99.90;;;;;;5053329;28;20524;-37
2022/10/04 06:57:17;;;;;;;10.88;6.60;;;10.70;99.90;;;;;;5054282;28;20120;-38
2022/10/04 07:00:08;;;;;;;11.93;7.68;;;10.70;99.90;;;;;;5052430;28;20041;-37
2022/10/04 07:02:46;;;;;;;10.27;6.10;;;10.80;99.90;;;;;;5053030;28;20041;-37
2022/10/04 07:05:41;;;;;;;14.18;7.15;;;10.80;99.90;;;;;;5054835;28;20056;-37
2022/10/04 07:08:33;;;;;;;14.73;8.13;;;10.80;99.90;;;;;;5035449;28;20160;-35
2022/10/04 07:11:03;;;;;;;12.95;8.13;;;10.90;99.90;;;;;;5046134;28;20139;-35
2022/10/04 07:14:01;;;;;;;13.05;7.82;;;10.90;99.90;;;;;;5035100;28;20053;-35
2022/10/04 07:16:48;;;;;;;19.27;8.75;;;11.00;99.90;;;;;;5051970;28;20049;-35
2022/10/04 07:19:44;;;;;;;15.65;7.97;;;11.10;99.90;;;;;;5048687;28;20045;-36
2022/10/04 07:22:21;;;;;;;11.75;8.18;;;11.20;99.90;;;;;;5051630;28;20508;-35
2022/10/04 07:25:04;;;;;;;12.75;7.85;;;11.30;99.90;;;;;;5045186;28;20072;-35
2022/10/04 07:29:19;;;;;;;12.02;7.25;;;11.30;99.90;;;;;;5045838;28;20037;-36
2022/10/04 07:31:02;;;;;;;16.25;9.23;;;11.40;99.90;;;;;;5044379;28;20068;-36
2022/10/04 07:33:40;;;;;;;14.27;8.85;;;11.60;99.90;;;;;;5039928;28;20033;-36
2022/10/04 07:36:14;;;;;;;12.95;8.18;;;11.70;99.90;;;;;;5051360;28;20029;-36
2022/10/04 07:39:00;;;;;;;13.13;7.60;;;11.80;99.90;;;;;;5053337;28;20474;-36
2022/10/04 07:41:34;;;;;;;13.07;7.93;;;11.90;99.90;;;;;;5034687;28;20047;-36
2022/10/04 07:44:27;;;;;;;16.23;7.82;;;12.10;99.90;;;;;;5054906;28;20043;-36
2022/10/04 07:47:26;;;;;;;13.93;7.07;;;12.10;99.90;;;;;;5051710;28;20044;-36
2022/10/04 07:49:53;;;;;;;11.48;8.10;;;12.20;99.90;;;;;;5057235;28;20286;-36
2022/10/04 07:52:48;;;;;;;14.15;7.50;;;12.30;99.90;;;;;;5050900;28;20556;-35
2022/10/04 07:55:27;;;;;;;11.40;7.40;;;12.40;99.90;;;;;;5034326;28;20037;-37
2022/10/04 07:58:20;;;;;;;12.75;7.72;;;12.40;99.90;;;;;;5053373;28;20051;-35
2022/10/04 08:00:58;;;;;;;13.77;8.00;;;12.40;99.90;;;;;;5048884;28;20059;-35
2022/10/04 08:04:05;;;;;;;14.20;8.18;;;12.40;99.90;;;;;;5060135;28;20055;-35
2022/10/04 08:06:51;;;;;;;12.52;8.73;;;12.40;99.90;;;;;;5033172;28;20612;-35
2022/10/04 08:09:56;;;;;;;15.55;9.07;;;12.40;99.90;;;;;;5049457;28;20032;-34
2022/10/04 08:12:46;;;;;;;15.55;8.05;;;12.40;99.90;;;;;;5056583;28;20057;-35
2022/10/04 08:15:35;;;;;;;12.05;8.93;;;12.50;99.90;;;;;;5051148;28;20462;-34
2022/10/04 08:18:20;;;;;;;14.00;9.13;;;12.60;99.90;;;;;;5053735;28;20041;-35
2022/10/04 08:21:05;;;;;;;13.07;8.02;;;12.80;99.90;;;;;;5051534;28;20655;-35
2022/10/04 08:23:46;;;;;;;15.38;8.07;;;12.90;99.90;;;;;;5061049;28;20040;-35
2022/10/04 08:26:31;;;;;;;18.33;8.25;;;13.10;99.90;;;;;;5052796;28;20037;-35
2022/10/04 08:29:43;;;;;;;13.82;6.50;;;13.20;99.90;;;;;;5049667;28;20043;-35
2022/10/04 08:32:37;;;;;;;8.73;5.80;;;13.40;99.90;;;;;;5053870;28;20401;-35
2022/10/04 08:35:38;;;;;;;11.43;5.50;;;13.50;99.90;;;;;;5052667;28;20055;-36
2022/10/04 08:38:11;;;;;;;12.02;5.90;;;13.50;99.90;;;;;;5049246;28;20049;-37
2022/10/04 08:40:49;;;;;;;9.75;5.50;;;13.60;99.90;;;;;;5047824;28;20597;-37
2022/10/04 08:43:34;;;;;;;11.13;5.70;;;13.50;99.90;;;;;;5037221;28;20052;-39
2022/10/04 08:46:32;;;;;;;8.18;5.47;;;13.50;99.90;;;;;;5044291;28;20041;-38
2022/10/04 08:49:01;;;;;;;9.10;5.07;;;13.50;99.90;;;;;;5045941;28;20032;-37
2022/10/04 08:51:37;;;;;;;11.35;5.85;;;13.40;99.90;;;;;;5045492;28;20098;-38
2022/10/04 08:54:40;;;;;;;16.20;6.18;;;13.40;99.90;;;;;;5039671;28;20405;-37
2022/10/04 08:57:13;;;;;;;;;;;13.40;99.90;;;;;;5037932;28;20452;-38
2022/10/04 09:00:03;;;;;;;9.45;4.47;;;13.40;99.90;;;;;;5035379;28;20419;-38
2022/10/04 09:02:53;;;;;;;10.55;4.28;;;13.50;99.90;;;;;;5049112;28;20051;-40
2022/10/04 09:05:34;;;;;;;7.47;3.88;;;13.70;99.90;;;;;;5047892;28;20044;-38
2022/10/04 09:08:14;;;;;;;8.90;3.95;;;13.90;99.90;;;;;;5049552;28;20130;-37
2022/10/04 09:10:52;;;;;;;12.35;5.03;;;14.00;99.90;;;;;;5031610;28;20055;-37
2022/10/04 09:13:41;;;;;;;7.20;3.05;;;14.20;99.90;;;;;;5048181;28;20733;-38
2022/10/04 09:16:27;;;;;;;6.63;3.47;;;14.30;99.90;;;;;;5032244;28;20063;-38
2022/10/04 09:19:18;;;;;;;6.68;2.80;;;14.40;99.90;;;;;;5048533;28;20448;-46
2022/10/04 09:22:00;;;;;;;11.93;3.85;;;14.50;99.90;;;;;;5047898;28;20496;-40
2022/10/04 09:24:44;;;;;;;7.38;3.60;;;14.60;99.90;;;;;;5044547;28;20076;-38
2022/10/04 09:27:29;;;;;;;7.90;2.92;;;14.70;99.90;;;;;;5051710;28;20037;-37
2022/10/04 09:30:03;;;;;;;7.40;3.05;;;14.80;99.90;;;;;;5044891;28;20032;-39
2022/10/04 09:32:37;;;;;;;10.00;3.55;;;14.80;99.90;;;;;;5050730;28;20123;-38
2022/10/04 09:35:17;;;;;;;7.50;3.25;;;14.90;99.90;;;;;;5048716;28;20043;-37
2022/10/04 09:38:07;;;;;;;7.22;3.42;;;14.90;99.90;;;;;;5055036;28;20530;-37
2022/10/04 09:40:51;;;;;;;7.93;3.47;;;15.00;99.90;;;;;;5053238;28;20040;-38
2022/10/04 09:43:47;;;;;;;6.40;3.05;;;15.10;99.90;;;;;;5047669;28;20052;-38
2022/10/04 09:46:27;;;;;;;10.15;4.00;;;15.10;99.90;;;;;;5046519;28;20508;-37
2022/10/04 09:49:01;;;;;;;8.30;3.53;;;15.10;99.90;;;;;;5044511;28;20045;-37
2022/10/04 09:51:44;;;;;;;8.63;4.40;;;15.20;99.90;;;;;;5052998;28;20498;-38
2022/10/04 09:54:18;;;;;;;10.93;4.90;;;15.20;99.90;;;;;;5046514;28;20126;-38
2022/10/04 09:56:47;;;;;;;6.70;4.38;;;15.30;99.90;;;;;;5044506;28;20099;-36
2022/10/04 09:59:22;;;;;;;7.32;3.88;;;15.30;99.90;;;;;;5049415;28;20101;-39
2022/10/04 10:02:09;;;;;;;11.20;4.43;;;15.40;99.90;;;;;;5044732;28;20098;-39
2022/10/04 10:04:58;;;;;;;8.00;3.83;;;15.40;99.90;;;;;;5046090;28;20437;-36
2022/10/04 10:07:48;;;;;;;8.45;3.97;;;15.50;99.90;;;;;;5051306;28;20055;-36
2022/10/04 10:13:39;;;;;;;10.20;3.60;;;15.60;99.90;;;;;;5046190;28;20040;-36
2022/10/04 10:16:42;;;;;;;11.67;4.00;;;15.70;99.90;;;;;;5045157;28;20048;-36
2022/10/04 10:19:20;;;;;;;8.27;3.28;;;15.80;99.90;;;;;;5041307;28;20428;-36
2022/10/04 10:22:18;;;;;;;10.40;3.83;;;15.90;99.80;;;;;;5046249;28;20187;-36
2022/10/04 10:25:04;;;;;;;7.88;4.00;;;16.00;98.70;;;;;;5047948;28;20044;-36
2022/10/04 10:28:09;;;;;;;7.20;4.00;;;16.00;98.80;;;;;;5046082;28;20271;-36
2022/10/04 10:31:14;;;;;;;8.60;3.83;;;16.10;97.60;;;;;;5044752;28;20639;-36
2022/10/04 10:33:55;;;;;;;7.10;3.75;;;16.00;98.20;;;;;;5051393;28;20059;-36
2022/10/04 10:36:38;;;;;;;9.18;4.10;;;16.00;98.50;;;;;;5048719;28;20405;-36
2022/10/04 10:39:25;;;;;;;8.52;3.72;;;16.00;98.50;;;;;;5052524;28;20084;-36
2022/10/04 10:42:14;;;;;;;9.52;4.05;;;16.00;98.30;;;;;;5034450;28;20048;-37
2022/10/04 10:45:11;;;;;;;6.38;3.55;;;16.20;98.60;;;;;;5050870;28;20512;-38
2022/10/04 10:47:46;;;;;;;7.88;3.45;;;16.40;98.40;;;;;;5050669;28;20040;-39
2022/10/04 10:50:58;;;;;;;9.40;4.00;;;16.50;97.60;;;;;;5051020;28;20063;-39
2022/10/04 10:53:40;;;;;;;9.20;4.10;;;16.60;97.20;;;;;;5051389;28;20040;-35
2022/10/04 10:56:29;;;;;;;8.63;4.88;;;16.70;96.70;;;;;;5043249;28;20622;-35
2022/10/04 10:59:30;;;;;;;8.98;4.10;;;16.70;96.70;;;;;;5047760;28;20044;-36
2022/10/04 11:02:22;;;;;;;10.20;4.47;;;16.70;96.50;;;;;;5056395;28;20076;-35
2022/10/04 11:04:53;;;;;;;9.93;4.22;;;16.70;96.90;;;;;;5024654;28;20052;-35
2022/10/04 11:07:21;;;;;;;8.00;4.25;;;16.70;97.40;;;;;;5052883;28;20486;-36
2022/10/04 11:10:26;;;;;;;9.80;3.72;;;16.80;97.10;;;;;;5057383;28;20032;-36
2022/10/04 11:13:28;;;;;;;10.65;3.88;;;17.00;96.70;;;;;;5047542;28;20486;-36
2022/10/04 11:16:21;;;;;;;7.80;4.70;;;17.00;96.90;;;;;;5031816;28;20143;-35
2022/10/04 11:18:55;;;;;;;9.23;4.47;;;16.90;96.70;;;;;;5057967;28;20056;-35
2022/10/04 11:21:46;;;;;;;7.22;4.32;;;16.80;97.10;;;;;;5050473;28;20036;-36
2022/10/04 11:24:27;;;;;;;10.35;4.40;;;16.90;97.20;;;;;;5053745;28;20044;-39
2022/10/04 11:27:14;;;;;;;9.60;4.00;;;17.00;97.00;;;;;;5052223;28;20045;-38
2022/10/04 11:29:46;;;;;;;7.20;3.80;;;17.10;96.70;;;;;;5053107;28;20536;-39
2022/10/04 11:32:36;;;;;;;7.82;3.47;;;17.30;96.70;;;;;;5054165;28;20665;-39
2022/10/04 11:35:35;;;;;;;9.52;3.33;;;17.50;94.90;;;;;;5051905;28;20078;-39
2022/10/04 11:38:39;;;;;;;7.35;3.20;;;17.50;93.30;;;;;;5055535;28;20041;-38
2022/10/04 11:41:18;;;;;;;6.45;2.53;;;17.70;91.80;;;;;;5050944;28;20116;-39
2022/10/04 11:43:51;;;;;;;5.97;3.08;;;17.80;91.90;;;;;;5052255;28;20037;-38
2022/10/04 11:46:16;;;;;;;;;;;17.90;91.50;;;;;;5053428;28;20068;-38
2022/10/04 11:49:19;;;;;;;8.60;3.28;;;17.90;89.60;;;;;;5053001;28;19917;-39
2022/10/04 11:52:12;;;;;;;9.57;2.55;;;18.00;88.30;;;;;;5047581;28;21067;-37
2022/10/04 11:54:47;;;;;;;5.20;2.60;;;18.10;90.60;;;;;;5047273;28;20049;-37
2022/10/04 11:57:51;;;;;;;7.00;2.97;;;18.20;90.40;;;;;;5047414;28;20044;-38
2022/10/04 12:00:23;;;;;;;6.82;2.65;;;18.50;87.50;;;;;;5051397;28;20494;-38
2022/10/04 12:02:57;;;;;;;8.15;3.10;;;18.90;86.30;;;;;;5053758;28;21368;-37
2022/10/04 12:05:51;;;;;;;4.97;2.13;;;19.10;79.90;;;;;;5049562;28;20269;-37
2022/10/04 12:08:23;;;;;;;5.68;2.53;;;19.30;78.80;;;;;;5043299;28;20123;-36
2022/10/04 12:12:35;;;;;;;6.60;2.87;;;19.50;75.30;;;;;;5050103;28;20498;-36
2022/10/04 12:14:34;;;;;;;4.82;2.53;;;19.80;73.80;;;;;;5036590;28;20060;-36
2022/10/04 12:17:19;;;;;;;;;;;20.10;72.10;;;;;;5047557;28;20041;-36
2022/10/04 12:20:01;;;;;;;3.70;2.00;;;20.40;67.30;;;;;;5034239;28;20371;-37
2022/10/04 12:22:48;;;;;;;5.03;2.17;;;20.70;68.90;;;;;;5042807;28;20067;-37
2022/10/04 12:25:55;;;;;;;4.22;1.70;;;20.90;64.90;;;;;;5057735;28;20040;-38
2022/10/04 12:28:36;;;;;;;4.88;1.70;;;20.90;63.90;;;;;;5039516;28;20433;-38
2022/10/04 12:31:27;;;;;;;5.45;2.05;;;21.10;64.70;;;;;;5052254;28;20101;-40
2022/10/04 12:33:55;;;;;;;3.83;1.48;;;21.30;59.10;;;;;;5052883;28;20084;-37
2022/10/04 12:36:36;;;;;;;8.13;3.28;;;21.70;62.00;;;;;;5052047;28;20406;-37
2022/10/04 12:39:33;;;;;;;4.75;2.13;;;22.00;59.10;;;;;;5055376;28;20116;-38
2022/10/04 12:42:33;;;;;;;3.53;1.70;;;;;;;;;;5017772;28;20052;-38
2022/10/04 12:45:05;;;;;;;3.97;2.15;;;22.70;56.10;;;;;;5019610;28;20071;-38
2022/10/04 12:47:59;;;;;;;6.30;2.20;;;23.00;55.50;;;;;;5051973;28;20053;-38
2022/10/04 12:50:41;;;;;;;5.50;1.83;;;23.10;53.50;;;;;;5048081;28;20045;-40
2022/10/04 12:53:30;;;;;;;4.43;2.00;;;22.80;54.30;;;;;;5048176;28;20068;-39
2022/10/04 12:56:11;;;;;;;3.55;1.65;;;22.00;55.60;;;;;;5045487;28;20338;-38
2022/10/04 12:58:49;;;;;;;3.90;1.77;;;21.30;57.50;;;;;;5054841;28;20040;-36
2022/10/04 13:01:33;;;;;;;4.63;1.90;;;20.90;59.40;;;;;;5048458;28;20045;-36
2022/10/04 13:04:26;;;;;;;4.53;2.00;;;21.00;60.50;;;;;;5050620;28;21307;-36
2022/10/04 13:07:18;;;;;;;4.82;2.15;;;21.30;58.90;;;;;;5049925;28;21355;-35
2022/10/04 13:10:02;;;;;;;;;;;21.30;56.60;;;;;;5054426;28;20041;-35
2022/10/04 13:12:50;;;;;;;4.88;2.35;;;21.00;57.40;;;;;;5056021;28;19916;-36
2022/10/04 13:15:29;;;;;;;4.40;2.08;;;20.70;60.80;;;;;;5046634;28;20045;-36
2022/10/04 13:18:20;;;;;;;3.65;1.92;;;20.20;61.00;;;;;;5047455;28;20041;-39
2022/10/04 13:21:02;;;;;;;4.47;2.00;;;19.90;63.30;;;;;;5048953;28;20033;-40
2022/10/04 13:23:47;;;;;;;4.65;1.80;;;20.60;61.50;;;;;;5046725;28;20050;-40
2022/10/04 13:26:28;;;;;;;3.97;1.65;;;21.50;57.80;;;;;;5051944;28;20509;-41
2022/10/04 13:29:23;;;;;;;5.03;1.83;;;22.20;55.00;;;;;;5044937;28;20037;-39
2022/10/04 13:32:00;;;;;;;5.50;1.60;;;22.70;52.60;;;;;;5033844;28;20466;-48
2022/10/04 13:35:10;;;;;;;3.85;1.38;;;23.60;52.00;;;;;;5044190;28;20550;-39
2022/10/04 13:38:00;;;;;;;4.20;1.80;;;23.90;48.30;;;;;;5032319;28;20049;-38
2022/10/04 13:40:36;;;;;;;4.45;1.75;;;;;;;;;;5045303;28;21657;-38
2022/10/04 13:43:27;;;;;;;4.07;1.70;;;24.70;46.60;;;;;;5051180;28;20041;-38
2022/10/04 13:46:31;;;;;;;5.60;1.55;;;24.90;44.70;;;;;;5047000;28;20029;-39
2022/10/04 13:49:18;;;;;;;4.00;1.35;;;24.90;45.70;;;;;;5047878;28;20083;-38
2022/10/04 13:58:44;;;;;;;2.90;1.10;;;24.90;44.70;;;;;;5055292;28;20414;-40
2022/10/04 14:01:44;;;;;;;4.15;1.40;;;24.40;45.90;;;;;;5052434;28;20029;-38
2022/10/04 14:05:01;;;;;;;3.83;1.17;;;24.00;46.20;;;;;;5044825;28;20057;-38
2022/10/04 14:07:39;;;;;;;5.10;1.25;;;23.80;46.90;;;;;;5017628;28;20060;-42
2022/10/04 14:10:23;;;;;;;5.50;1.55;;;23.80;45.80;;;;;;5047678;28;20037;-41
2022/10/04 14:13:07;;;;;;;6.32;1.55;;;23.60;47.30;;;;;;5040852;28;20669;-43